sensor_id;sensor_type;location;lat;lon;timestamp;pressure;altitude;pressure_sealevel;temperature;humidity
39769;BME280;38939;47.824;14.642;2022-08-01T00:00:08;96886.41;;;19.82;78.78
39769;BME280;38939;47.824;14.642;2022-08-01T00:01:11;96882.94;;;19.81;78.92
39769;BME280;38939;47.824;14.642;2022-08-01T00:02:13;96877.38;;;19.77;78.99
39769;BME280;38939;47.824;14.642;2022-08-01T00:03:15;96880.81;;;19.78;78.96
39769;BME280;38939;47.824;14.642;2022-08-01T00:04:17;96883.72;;;19.71;79.86
39769;BME280;38939;47.824;14.642;2022-08-01T00:05:19;96880.50;;;19.69;79.31
39769;BME280;38939;47.824;14.642;2022-08-01T00:06:21;96880.00;;;19.72;79.08
39769;BME280;38939;47.824;14.642;2022-08-01T00:07:22;96883.19;;;19.74;79.17
39769;BME280;38939;47.824;14.642;2022-08-01T00:08:24;96882.66;;;19.72;79.90
39769;BME280;38939;47.824;14.642;2022-08-01T00:09:26;96881.56;;;19.68;79.86
39769;BME280;38939;47.824;14.642;2022-08-01T00:10:28;96886.84;;;19.68;79.86
39769;BME280;38939;47.824;14.642;2022-08-01T00:11:30;96883.16;;;19.69;79.75
39769;BME280;38939;47.824;14.642;2022-08-01T00:12:32;96874.69;;;19.72;79.59
39769;BME280;38939;47.824;14.642;2022-08-01T00:13:35;96884.25;;;19.73;79.53
39769;BME280;38939;47.824;14.642;2022-08-01T00:14:37;96876.84;;;19.75;79.27
39769;BME280;38939;47.824;14.642;2022-08-01T00:15:39;96880.81;;;19.78;79.33
39769;BME280;38939;47.824;14.642;2022-08-01T00:16:40;96878.69;;;19.80;79.28
39769;BME280;38939;47.824;14.642;2022-08-01T00:17:43;96876.84;;;19.81;79.14
39769;BME280;38939;47.824;14.642;2022-08-01T00:18:45;96878.44;;;19.82;79.29
39769;BME280;38939;47.824;14.642;2022-08-01T00:19:46;96878.41;;;19.76;79.54
39769;BME280;38939;47.824;14.642;2022-08-01T00:20:48;96876.56;;;19.77;79.50
39769;BME280;38939;47.824;14.642;2022-08-01T00:21:50;96881.84;;;19.77;79.39
39769;BME280;38939;47.824;14.642;2022-08-01T00:22:52;96880.56;;;19.80;79.24
39769;BME280;38939;47.824;14.642;2022-08-01T00:23:54;96886.41;;;19.82;79.18
39769;BME280;38939;47.824;14.642;2022-08-01T00:24:56;96881.88;;;19.82;79.14
39769;BME280;38939;47.824;14.642;2022-08-01T00:25:58;96876.84;;;19.81;79.06
39769;BME280;38939;47.824;14.642;2022-08-01T00:27:00;96881.09;;;19.82;78.90
39769;BME280;38939;47.824;14.642;2022-08-01T00:28:01;96880.28;;;19.81;78.95
39769;BME280;38939;47.824;14.642;2022-08-01T00:29:04;96885.84;;;19.80;78.99
39769;BME280;38939;47.824;14.642;2022-08-01T00:30:26;96879.75;;;19.74;79.23
39769;BME280;38939;47.824;14.642;2022-08-01T00:31:28;96877.63;;;19.76;79.28
39769;BME280;38939;47.824;14.642;2022-08-01T00:32:30;96880.28;;;19.76;79.36
39769;BME280;38939;47.824;14.642;2022-08-01T00:33:32;96879.22;;;19.72;79.32
39769;BME280;38939;47.824;14.642;2022-08-01T00:34:34;96882.66;;;19.72;79.27
39769;BME280;38939;47.824;14.642;2022-08-01T00:35:36;96879.75;;;19.74;79.01
39769;BME280;38939;47.824;14.642;2022-08-01T00:36:37;96869.94;;;19.74;79.54
39769;BME280;38939;47.824;14.642;2022-08-01T00:37:39;96878.44;;;19.71;80.17
39769;BME280;38939;47.824;14.642;2022-08-01T00:38:41;96882.34;;;19.64;80.68
39769;BME280;38939;47.824;14.642;2022-08-01T00:39:43;96873.59;;;19.63;80.29
39769;BME280;38939;47.824;14.642;2022-08-01T00:40:45;96882.06;;;19.65;80.22
39769;BME280;38939;47.824;14.642;2022-08-01T00:41:47;96881.56;;;19.68;80.19
39769;BME280;38939;47.824;14.642;2022-08-01T00:43:00;96879.44;;;19.70;80.48
39769;BME280;38939;47.824;14.642;2022-08-01T00:44:03;96874.13;;;19.70;80.78
39769;BME280;38939;47.824;14.642;2022-08-01T00:45:05;96881.06;;;19.71;80.48
39769;BME280;38939;47.824;14.642;2022-08-01T00:46:07;96882.66;;;19.72;80.21
39769;BME280;38939;47.824;14.642;2022-08-01T00:47:09;96883.97;;;19.75;80.12
39769;BME280;38939;47.824;14.642;2022-08-01T00:48:11;96878.41;;;19.76;80.07
39769;BME280;38939;47.824;14.642;2022-08-01T00:49:13;96884.25;;;19.73;80.75
39769;BME280;38939;47.824;14.642;2022-08-01T00:50:15;96883.41;;;19.68;81.10
39769;BME280;38939;47.824;14.642;2022-08-01T00:51:17;96888.97;;;19.66;80.88
39769;BME280;38939;47.824;14.642;2022-08-01T00:52:19;96890.53;;;19.67;80.64
39769;BME280;38939;47.824;14.642;2022-08-01T00:53:21;96886.84;;;19.68;80.37
39769;BME280;38939;47.824;14.642;2022-08-01T00:54:26;96886.84;;;19.68;80.21
39769;BME280;38939;47.824;14.642;2022-08-01T00:55:29;96896.66;;;19.68;80.28
39769;BME280;38939;47.824;14.642;2022-08-01T00:56:32;96891.09;;;19.69;80.23
39769;BME280;38939;47.824;14.642;2022-08-01T00:57:34;96892.44;;;19.72;80.05
39769;BME280;38939;47.824;14.642;2022-08-01T00:58:56;96889.56;;;19.73;80.10
39769;BME280;38939;47.824;14.642;2022-08-01T00:59:59;96897.75;;;19.72;80.52
39769;BME280;38939;47.824;14.642;2022-08-01T01:01:01;96894.53;;;19.70;80.43
39769;BME280;38939;47.824;14.642;2022-08-01T01:02:04;96895.31;;;19.70;80.73
39769;BME280;38939;47.824;14.642;2022-08-01T01:03:16;96894.53;;;19.70;80.54
39769;BME280;38939;47.824;14.642;2022-08-01T01:04:17;96894.53;;;19.70;80.37
39769;BME280;38939;47.824;14.642;2022-08-01T01:05:19;96889.00;;;19.71;80.39
39769;BME280;38939;47.824;14.642;2022-08-01T01:07:50;96888.72;;;19.73;80.33
39769;BME280;38939;47.824;14.642;2022-08-01T01:11:13;96892.44;;;19.72;80.12
39769;BME280;38939;47.824;14.642;2022-08-01T01:13:26;96894.78;;;19.68;80.10
39769;BME280;38939;47.824;14.642;2022-08-01T01:14:41;96890.53;;;19.67;80.01
39769;BME280;38939;47.824;14.642;2022-08-01T01:16:10;96884.44;;;19.67;79.97
39769;BME280;38939;47.824;14.642;2022-08-01T01:17:09;96879.94;;;19.67;80.02
39769;BME280;38939;47.824;14.642;2022-08-01T01:18:23;96887.34;;;19.65;80.33
39769;BME280;38939;47.824;14.642;2022-08-01T01:19:28;96886.31;;;19.66;80.37
39769;BME280;38939;47.824;14.642;2022-08-01T01:20:32;96879.94;;;19.67;80.29
39769;BME280;38939;47.824;14.642;2022-08-01T01:21:39;96881.56;;;19.68;80.28
39769;BME280;38939;47.824;14.642;2022-08-01T01:22:50;96886.84;;;19.68;80.39
39769;BME280;38939;47.824;14.642;2022-08-01T01:26:27;96886.84;;;19.68;80.47
39769;BME280;38939;47.824;14.642;2022-08-01T01:29:58;96884.16;;;19.63;80.98
39769;BME280;38939;47.824;14.642;2022-08-01T01:31:02;96879.94;;;19.62;81.11
39769;BME280;38939;47.824;14.642;2022-08-01T01:33:16;96886.56;;;19.59;80.73
39769;BME280;38939;47.824;14.642;2022-08-01T01:34:20;96883.09;;;19.59;80.63
39769;BME280;38939;47.824;14.642;2022-08-01T01:35:24;96888.38;;;19.59;80.34
39769;BME280;38939;47.824;14.642;2022-08-01T01:36:27;96880.44;;;19.59;80.44
39769;BME280;38939;47.824;14.642;2022-08-01T01:37:30;96880.44;;;19.54;80.53
39769;BME280;38939;47.824;14.642;2022-08-01T01:38:34;96875.16;;;19.54;80.68
39769;BME280;38939;47.824;14.642;2022-08-01T01:39:37;96877.28;;;19.52;80.61
39769;BME280;38939;47.824;14.642;2022-08-01T01:40:46;96874.38;;;19.53;80.49
39769;BME280;38939;47.824;14.642;2022-08-01T01:41:48;96880.19;;;19.55;80.20
39769;BME280;38939;47.824;14.642;2022-08-01T01:42:50;96877.56;;;19.55;80.32
39769;BME280;38939;47.824;14.642;2022-08-01T01:43:53;96880.44;;;19.59;80.19
39769;BME280;38939;47.824;14.642;2022-08-01T01:44:55;96873.31;;;19.59;80.17
39769;BME280;38939;47.824;14.642;2022-08-01T01:45:57;96866.19;;;19.60;80.17
39769;BME280;38939;47.824;14.642;2022-08-01T01:47:00;96869.59;;;19.61;80.09
39769;BME280;38939;47.824;14.642;2022-08-01T01:48:02;96871.47;;;19.60;80.11
39769;BME280;38939;47.824;14.642;2022-08-01T01:49:05;96867.22;;;19.59;80.21
39769;BME280;38939;47.824;14.642;2022-08-01T01:50:11;96867.50;;;19.57;80.03
39769;BME280;38939;47.824;14.642;2022-08-01T01:51:14;96868.81;;;19.60;79.84
39769;BME280;38939;47.824;14.642;2022-08-01T01:52:16;96868.81;;;19.60;80.24
39769;BME280;38939;47.824;14.642;2022-08-01T01:53:20;96861.38;;;19.57;80.13
39769;BME280;38939;47.824;14.642;2022-08-01T01:54:28;96867.22;;;19.59;80.13
39769;BME280;38939;47.824;14.642;2022-08-01T01:55:31;96865.63;;;19.58;80.35
39769;BME280;38939;47.824;14.642;2022-08-01T01:56:49;96866.69;;;19.57;80.24
39769;BME280;38939;47.824;14.642;2022-08-01T01:57:52;96862.47;;;19.56;80.17
39769;BME280;38939;47.824;14.642;2022-08-01T01:58:56;96866.97;;;19.55;79.93
39769;BME280;38939;47.824;14.642;2022-08-01T01:59:59;96865.09;;;19.56;79.76
39769;BME280;38939;47.824;14.642;2022-08-01T02:01:02;96866.69;;;19.57;79.69
39769;BME280;38939;47.824;14.642;2022-08-01T02:02:14;96862.47;;;19.56;79.61
39769;BME280;38939;47.824;14.642;2022-08-01T02:03:18;96859.03;;;19.55;79.85
39769;BME280;38939;47.824;14.642;2022-08-01T02:04:21;96857.66;;;19.53;80.03
39769;BME280;38939;47.824;14.642;2022-08-01T02:05:25;96856.88;;;19.52;80.04
39769;BME280;38939;47.824;14.642;2022-08-01T02:06:29;96859.00;;;19.50;80.19
39769;BME280;38939;47.824;14.642;2022-08-01T02:07:33;96856.59;;;19.49;79.76
39769;BME280;38939;47.824;14.642;2022-08-01T02:08:36;96856.59;;;19.49;80.03
39769;BME280;38939;47.824;14.642;2022-08-01T02:09:40;96854.22;;;19.47;80.26
39769;BME280;38939;47.824;14.642;2022-08-01T02:10:44;96844.44;;;19.48;80.40
39769;BME280;38939;47.824;14.642;2022-08-01T02:12:06;96842.84;;;19.47;80.30
39769;BME280;38939;47.824;14.642;2022-08-01T02:13:09;96847.09;;;19.48;80.39
39769;BME280;38939;47.824;14.642;2022-08-01T02:14:12;96845.75;;;19.45;80.39
39769;BME280;38939;47.824;14.642;2022-08-01T02:15:15;96844.94;;;19.45;80.28
39769;BME280;38939;47.824;14.642;2022-08-01T02:16:20;96850.53;;;19.43;79.88
39769;BME280;38939;47.824;14.642;2022-08-01T02:17:22;96841.75;;;19.43;79.80
39769;BME280;38939;47.824;14.642;2022-08-01T02:18:25;96843.88;;;19.41;80.01
39769;BME280;38939;47.824;14.642;2022-08-01T02:19:27;96846.25;;;19.42;79.90
39769;BME280;38939;47.824;14.642;2022-08-01T02:20:29;96838.31;;;19.42;79.86
39769;BME280;38939;47.824;14.642;2022-08-01T02:21:39;96836.22;;;19.44;79.81
39769;BME280;38939;47.824;14.642;2022-08-01T02:23:47;96836.75;;;19.46;79.93
39769;BME280;38939;47.824;14.642;2022-08-01T02:24:52;96839.16;;;19.48;79.80
39769;BME280;38939;47.824;14.642;2022-08-01T02:25:56;96833.84;;;19.48;79.81
39769;BME280;38939;47.824;14.642;2022-08-01T02:27:12;96836.75;;;19.46;79.72
39769;BME280;38939;47.824;14.642;2022-08-01T02:28:17;96828.81;;;19.46;79.75
39769;BME280;38939;47.824;14.642;2022-08-01T02:29:27;96825.91;;;19.48;79.88
39769;BME280;38939;47.824;14.642;2022-08-01T02:30:35;96827.47;;;19.49;79.63
39769;BME280;38939;47.824;14.642;2022-08-01T02:31:38;96836.22;;;19.44;79.37
39769;BME280;38939;47.824;14.642;2022-08-01T02:32:42;96829.31;;;19.38;79.38
39769;BME280;38939;47.824;14.642;2022-08-01T02:33:45;96830.34;;;19.32;79.60
39769;BME280;38939;47.824;14.642;2022-08-01T02:34:50;96825.84;;;19.27;79.59
39769;BME280;38939;47.824;14.642;2022-08-01T02:35:56;96822.13;;;19.23;79.74
39769;BME280;38939;47.824;14.642;2022-08-01T02:37:19;96820.53;;;19.22;79.91
39769;BME280;38939;47.824;14.642;2022-08-01T02:38:23;96822.13;;;19.23;80.08
39769;BME280;38939;47.824;14.642;2022-08-01T02:39:26;96819.22;;;19.25;80.41
39769;BME280;38939;47.824;14.642;2022-08-01T02:40:29;96825.31;;;19.25;80.16
39769;BME280;38939;47.824;14.642;2022-08-01T02:41:36;96828.75;;;19.26;80.02
39769;BME280;38939;47.824;14.642;2022-08-01T02:42:41;96820.81;;;19.26;80.01
39769;BME280;38939;47.824;14.642;2022-08-01T02:43:45;96810.72;;;19.23;80.22
39769;BME280;38939;47.824;14.642;2022-08-01T02:44:53;96813.66;;;19.21;80.17
39769;BME280;38939;47.824;14.642;2022-08-01T02:45:58;96809.94;;;19.22;80.21
39769;BME280;38939;47.824;14.642;2022-08-01T02:47:01;96815.78;;;19.24;80.20
39769;BME280;38939;47.824;14.642;2022-08-01T02:48:08;96814.72;;;19.25;80.28
39769;BME280;38939;47.824;14.642;2022-08-01T02:49:11;96812.88;;;19.26;80.37
39769;BME280;38939;47.824;14.642;2022-08-01T02:50:13;96805.72;;;19.26;80.04
39769;BME280;38939;47.824;14.642;2022-08-01T02:51:15;96806.25;;;19.28;80.03
39769;BME280;38939;47.824;14.642;2022-08-01T02:52:20;96808.13;;;19.28;79.96
39769;BME280;38939;47.824;14.642;2022-08-01T02:53:23;96816.06;;;19.28;79.79
39769;BME280;38939;47.824;14.642;2022-08-01T02:54:45;96809.97;;;19.27;79.69
39769;BME280;38939;47.824;14.642;2022-08-01T02:55:48;96811.00;;;19.26;79.59
39769;BME280;38939;47.824;14.642;2022-08-01T02:56:51;96814.19;;;19.28;79.48
39769;BME280;38939;47.824;14.642;2022-08-01T02:57:55;96808.13;;;19.28;79.62
39769;BME280;38939;47.824;14.642;2022-08-01T02:59:06;96805.72;;;19.26;79.61
39769;BME280;38939;47.824;14.642;2022-08-01T03:00:09;96803.06;;;19.26;79.71
39769;BME280;38939;47.824;14.642;2022-08-01T03:01:12;96808.63;;;19.25;80.04
39769;BME280;38939;47.824;14.642;2022-08-01T03:02:16;96806.78;;;19.25;79.78
39769;BME280;38939;47.824;14.642;2022-08-01T03:03:19;96811.25;;;19.19;79.82
39769;BME280;38939;47.824;14.642;2022-08-01T03:04:24;96805.19;;;19.19;79.75
39769;BME280;38939;47.824;14.642;2022-08-01T03:05:27;96804.91;;;19.21;79.84
39769;BME280;38939;47.824;14.642;2022-08-01T03:06:29;96806.50;;;19.22;79.59
39769;BME280;38939;47.824;14.642;2022-08-01T03:07:31;96807.06;;;19.24;79.57
39769;BME280;38939;47.824;14.642;2022-08-01T03:08:40;96813.91;;;19.25;79.64
39769;BME280;38939;47.824;14.642;2022-08-01T03:09:44;96813.41;;;19.28;79.69
39769;BME280;38939;47.824;14.642;2022-08-01T03:10:47;96814.72;;;19.30;79.69
39769;BME280;38939;47.824;14.642;2022-08-01T03:11:50;96814.19;;;19.28;79.80
39769;BME280;38939;47.824;14.642;2022-08-01T03:12:52;96815.53;;;19.26;79.92
39769;BME280;38939;47.824;14.642;2022-08-01T03:13:55;96824.78;;;19.23;79.99
39769;BME280;38939;47.824;14.642;2022-08-01T03:14:58;96819.22;;;19.19;80.19
39769;BME280;38939;47.824;14.642;2022-08-01T03:16:01;96812.31;;;19.18;80.21
39769;BME280;38939;47.824;14.642;2022-08-01T03:17:04;96819.47;;;19.18;80.45
39769;BME280;38939;47.824;14.642;2022-08-01T03:18:07;96816.53;;;19.14;80.27
39769;BME280;38939;47.824;14.642;2022-08-01T03:19:11;96813.09;;;19.14;80.24
39769;BME280;38939;47.824;14.642;2022-08-01T03:20:14;96812.06;;;19.15;80.32
39769;BME280;38939;47.824;14.642;2022-08-01T03:21:16;96814.16;;;19.13;80.28
39769;BME280;38939;47.824;14.642;2022-08-01T03:22:21;96807.50;;;19.10;80.68
39769;BME280;38939;47.824;14.642;2022-08-01T03:23:24;96812.03;;;19.10;80.63
39769;BME280;38939;47.824;14.642;2022-08-01T03:24:39;96808.34;;;19.11;80.50
39769;BME280;38939;47.824;14.642;2022-08-01T03:25:41;96813.88;;;19.14;80.27
39769;BME280;38939;47.824;14.642;2022-08-01T03:26:45;96813.63;;;19.16;80.33
39769;BME280;38939;47.824;14.642;2022-08-01T03:27:54;96814.16;;;19.18;80.21
39769;BME280;38939;47.824;14.642;2022-08-01T03:28:57;96815.47;;;19.15;80.48
39769;BME280;38939;47.824;14.642;2022-08-01T03:30:00;96811.50;;;19.13;80.62
39769;BME280;38939;47.824;14.642;2022-08-01T03:31:04;96805.69;;;19.11;80.62
39769;BME280;38939;47.824;14.642;2022-08-01T03:32:06;96804.09;;;19.10;80.45
39769;BME280;38939;47.824;14.642;2022-08-01T03:33:10;96808.84;;;19.08;80.45
39769;BME280;38939;47.824;14.642;2022-08-01T03:34:15;96806.97;;;19.08;80.29
39769;BME280;38939;47.824;14.642;2022-08-01T03:35:18;96802.75;;;19.07;80.30
39769;BME280;38939;47.824;14.642;2022-08-01T03:36:24;96809.38;;;19.05;80.20
39769;BME280;38939;47.824;14.642;2022-08-01T03:37:27;96807.25;;;19.07;80.06
39769;BME280;38939;47.824;14.642;2022-08-01T03:38:31;96799.03;;;19.08;80.19
39769;BME280;38939;47.824;14.642;2022-08-01T03:39:38;96810.44;;;19.09;80.18
39769;BME280;38939;47.824;14.642;2022-08-01T03:42:07;96812.56;;;19.07;80.00
39769;BME280;38939;47.824;14.642;2022-08-01T03:43:19;96810.16;;;19.05;79.62
39769;BME280;38939;47.824;14.642;2022-08-01T03:44:22;96811.19;;;19.04;79.62
39769;BME280;38939;47.824;14.642;2022-08-01T03:45:26;96810.16;;;19.05;79.47
39769;BME280;38939;47.824;14.642;2022-08-01T03:46:35;96810.94;;;19.06;79.77
39769;BME280;38939;47.824;14.642;2022-08-01T03:47:37;96818.63;;;19.07;79.82
39769;BME280;38939;47.824;14.642;2022-08-01T03:48:47;96819.94;;;19.10;79.70
39769;BME280;38939;47.824;14.642;2022-08-01T03:49:49;96824.19;;;19.11;79.49
39769;BME280;38939;47.824;14.642;2022-08-01T03:50:54;96823.91;;;19.12;79.49
39769;BME280;38939;47.824;14.642;2022-08-01T03:51:56;96814.41;;;19.11;79.46
39769;BME280;38939;47.824;14.642;2022-08-01T03:53:00;96814.13;;;19.08;79.45
39769;BME280;38939;47.824;14.642;2022-08-01T03:54:03;96824.97;;;19.06;79.25
39769;BME280;38939;47.824;14.642;2022-08-01T03:55:06;96824.16;;;19.06;79.25
39769;BME280;38939;47.824;14.642;2022-08-01T03:56:09;96824.72;;;19.08;79.06
39769;BME280;38939;47.824;14.642;2022-08-01T03:57:11;96821.03;;;19.09;79.27
39769;BME280;38939;47.824;14.642;2022-08-01T03:58:34;96808.59;;;19.09;79.37
39769;BME280;38939;47.824;14.642;2022-08-01T03:59:36;96813.88;;;19.09;79.45
39769;BME280;38939;47.824;14.642;2022-08-01T04:00:38;96819.69;;;19.11;79.45
39769;BME280;38939;47.824;14.642;2022-08-01T04:01:41;96811.75;;;19.11;79.21
39769;BME280;38939;47.824;14.642;2022-08-01T04:02:43;96811.75;;;19.11;79.22
39769;BME280;38939;47.824;14.642;2022-08-01T04:03:46;96819.44;;;19.13;79.28
39769;BME280;38939;47.824;14.642;2022-08-01T04:04:48;96815.47;;;19.15;79.21
39769;BME280;38939;47.824;14.642;2022-08-01T04:05:50;96817.88;;;19.17;79.14
39769;BME280;38939;47.824;14.642;2022-08-01T04:06:52;96819.47;;;19.18;79.38
39769;BME280;38939;47.824;14.642;2022-08-01T04:07:55;96813.13;;;19.19;79.37
39769;BME280;38939;47.824;14.642;2022-08-01T04:08:57;96814.16;;;19.18;79.26
39769;BME280;38939;47.824;14.642;2022-08-01T04:09:59;96819.47;;;19.18;79.24
39769;BME280;38939;47.824;14.642;2022-08-01T04:11:01;96826.06;;;19.21;79.26
39769;BME280;38939;47.824;14.642;2022-08-01T04:12:03;96817.34;;;19.20;79.19
39769;BME280;38939;47.824;14.642;2022-08-01T04:13:12;96823.97;;;19.23;79.21
39769;BME280;38939;47.824;14.642;2022-08-01T04:14:14;96830.59;;;19.25;79.25
39769;BME280;38939;47.824;14.642;2022-08-01T04:15:16;96826.88;;;19.26;79.13
39769;BME280;38939;47.824;14.642;2022-08-01T04:16:18;96837.22;;;19.28;79.27
39769;BME280;38939;47.824;14.642;2022-08-01T04:17:21;96832.72;;;19.28;79.51
39769;BME280;38939;47.824;14.642;2022-08-01T04:18:22;96831.69;;;19.29;79.84
39769;BME280;38939;47.824;14.642;2022-08-01T04:19:24;96835.38;;;19.28;79.60
39769;BME280;38939;47.824;14.642;2022-08-01T04:20:27;96835.38;;;19.28;79.54
39769;BME280;38939;47.824;14.642;2022-08-01T04:21:30;96841.19;;;19.30;79.52
39769;BME280;38939;47.824;14.642;2022-08-01T04:22:34;96844.63;;;19.31;79.72
39769;BME280;38939;47.824;14.642;2022-08-01T04:23:38;96841.72;;;19.32;79.58
39769;BME280;38939;47.824;14.642;2022-08-01T04:24:41;96829.56;;;19.31;79.77
39769;BME280;38939;47.824;14.642;2022-08-01T04:25:44;96834.84;;;19.31;79.74
39769;BME280;38939;47.824;14.642;2022-08-01T04:26:46;96839.63;;;19.29;80.07
39769;BME280;38939;47.824;14.642;2022-08-01T04:27:49;96844.38;;;19.27;79.83
39769;BME280;38939;47.824;14.642;2022-08-01T04:28:53;96845.16;;;19.28;79.87
39769;BME280;38939;47.824;14.642;2022-08-01T04:29:57;96836.97;;;19.29;79.52
39769;BME280;38939;47.824;14.642;2022-08-01T04:31:00;96835.13;;;19.30;79.94
39769;BME280;38939;47.824;14.642;2022-08-01T04:32:02;96834.03;;;19.31;80.09
39769;BME280;38939;47.824;14.642;2022-08-01T04:33:06;96836.16;;;19.29;79.83
39769;BME280;38939;47.824;14.642;2022-08-01T04:34:09;96834.31;;;19.29;79.59
39769;BME280;38939;47.824;14.642;2022-08-01T04:35:13;96839.09;;;19.27;79.35
39769;BME280;38939;47.824;14.642;2022-08-01T04:36:37;96841.72;;;19.27;79.30
39769;BME280;38939;47.824;14.642;2022-08-01T04:37:44;96839.88;;;19.28;79.31
39769;BME280;38939;47.824;14.642;2022-08-01T04:38:48;96849.13;;;19.30;79.39
39769;BME280;38939;47.824;14.642;2022-08-01T04:39:52;96844.63;;;19.31;79.43
39769;BME280;38939;47.824;14.642;2022-08-01T04:40:56;96848.09;;;19.31;79.32
39769;BME280;38939;47.824;14.642;2022-08-01T04:41:58;96856.03;;;19.31;79.30
39769;BME280;38939;47.824;14.642;2022-08-01T04:43:02;96851.28;;;19.33;79.21
39769;BME280;38939;47.824;14.642;2022-08-01T04:44:04;96855.50;;;19.34;79.33
39769;BME280;38939;47.824;14.642;2022-08-01T04:45:06;96865.03;;;19.35;79.37
39769;BME280;38939;47.824;14.642;2022-08-01T04:46:10;96862.38;;;19.35;79.13
39769;BME280;38939;47.824;14.642;2022-08-01T04:47:13;96857.09;;;19.35;79.32
39769;BME280;38939;47.824;14.642;2022-08-01T04:48:16;96851.81;;;19.35;80.00
39769;BME280;38939;47.824;14.642;2022-08-01T04:49:19;96842.25;;;19.34;80.29
39769;BME280;38939;47.824;14.642;2022-08-01T04:50:21;96841.72;;;19.32;80.22
39769;BME280;38939;47.824;14.642;2022-08-01T04:51:23;96853.91;;;19.33;80.08
39769;BME280;38939;47.824;14.642;2022-08-01T04:52:32;96847.81;;;19.33;79.95
39769;BME280;38939;47.824;14.642;2022-08-01T04:53:34;96856.28;;;19.35;79.85
39769;BME280;38939;47.824;14.642;2022-08-01T04:54:35;96858.94;;;19.35;79.63
39769;BME280;38939;47.824;14.642;2022-08-01T04:55:40;96849.16;;;19.35;80.00
39769;BME280;38939;47.824;14.642;2022-08-01T04:56:42;96852.84;;;19.34;80.22
39769;BME280;38939;47.824;14.642;2022-08-01T04:57:44;96852.84;;;19.34;80.29
39769;BME280;38939;47.824;14.642;2022-08-01T04:58:47;96858.94;;;19.35;80.26
39769;BME280;38939;47.824;14.642;2022-08-01T05:00:15;96858.44;;;19.38;80.39
39769;BME280;38939;47.824;14.642;2022-08-01T05:01:20;96851.56;;;19.37;80.70
39769;BME280;38939;47.824;14.642;2022-08-01T05:02:22;96855.78;;;19.38;80.66
39769;BME280;38939;47.824;14.642;2022-08-01T05:03:24;96860.03;;;19.39;80.65
39769;BME280;38939;47.824;14.642;2022-08-01T05:04:26;96864.50;;;19.38;81.20
39769;BME280;38939;47.824;14.642;2022-08-01T05:05:27;96863.97;;;19.36;81.24
39769;BME280;38939;47.824;14.642;2022-08-01T05:06:29;96865.56;;;19.37;81.20
39769;BME280;38939;47.824;14.642;2022-08-01T05:07:32;96864.50;;;19.38;81.76
39769;BME280;38939;47.824;14.642;2022-08-01T05:08:45;96864.50;;;19.38;81.71
39769;BME280;38939;47.824;14.642;2022-08-01T05:09:47;96859.50;;;19.37;81.94
39769;BME280;38939;47.824;14.642;2022-08-01T05:10:49;96858.94;;;19.35;82.54
39769;BME280;38939;47.824;14.642;2022-08-01T05:11:51;96863.69;;;19.33;82.30
39769;BME280;38939;47.824;14.642;2022-08-01T05:12:53;96864.50;;;19.33;82.03
39769;BME280;38939;47.824;14.642;2022-08-01T05:13:55;96861.31;;;19.36;81.94
39769;BME280;38939;47.824;14.642;2022-08-01T05:14:57;96858.69;;;19.36;82.13
39769;BME280;38939;47.824;14.642;2022-08-01T05:15:59;96862.38;;;19.35;82.17
39769;BME280;38939;47.824;14.642;2022-08-01T05:17:02;96859.75;;;19.35;82.15
39769;BME280;38939;47.824;14.642;2022-08-01T05:18:05;96857.88;;;19.36;82.17
39769;BME280;38939;47.824;14.642;2022-08-01T05:19:09;96865.56;;;19.37;82.03
39769;BME280;38939;47.824;14.642;2022-08-01T05:20:11;96864.25;;;19.40;81.83
39769;BME280;38939;47.824;14.642;2022-08-01T05:21:13;96868.75;;;19.39;81.86
39769;BME280;38939;47.824;14.642;2022-08-01T05:22:15;96868.22;;;19.43;81.64
39769;BME280;38939;47.824;14.642;2022-08-01T05:23:17;96859.25;;;19.44;81.54
39769;BME280;38939;47.824;14.642;2022-08-01T05:24:37;96874.88;;;19.45;81.72
39769;BME280;38939;47.824;14.642;2022-08-01T05:25:41;96874.06;;;19.45;81.85
39769;BME280;38939;47.824;14.642;2022-08-01T05:26:58;96874.06;;;19.45;81.77
39769;BME280;38939;47.824;14.642;2022-08-01T05:28:01;96870.63;;;19.44;81.70
39769;BME280;38939;47.824;14.642;2022-08-01T05:29:03;96876.44;;;19.46;81.65
39769;BME280;38939;47.824;14.642;2022-08-01T05:30:08;96866.66;;;19.47;82.22
39769;BME280;38939;47.824;14.642;2022-08-01T05:31:11;96871.16;;;19.46;82.82
39769;BME280;38939;47.824;14.642;2022-08-01T05:32:12;96865.31;;;19.44;82.82
39769;BME280;38939;47.824;14.642;2022-08-01T05:33:14;96869.03;;;19.43;82.81
39769;BME280;38939;47.824;14.642;2022-08-01T05:34:16;96866.66;;;19.42;82.75
39769;BME280;38939;47.824;14.642;2022-08-01T05:35:18;96866.66;;;19.42;82.74
39769;BME280;38939;47.824;14.642;2022-08-01T05:36:20;96866.13;;;19.39;82.76
39769;BME280;38939;47.824;14.642;2022-08-01T05:37:22;96861.59;;;19.40;82.62
39769;BME280;38939;47.824;14.642;2022-08-01T05:38:24;96870.09;;;19.42;82.35
39769;BME280;38939;47.824;14.642;2022-08-01T05:39:26;96866.13;;;19.45;82.50
39769;BME280;38939;47.824;14.642;2022-08-01T05:40:28;96875.91;;;19.44;82.38
39769;BME280;38939;47.824;14.642;2022-08-01T05:41:30;96873.25;;;19.44;82.46
39769;BME280;38939;47.824;14.642;2022-08-01T05:42:31;96864.53;;;19.44;82.59
39769;BME280;38939;47.824;14.642;2022-08-01T05:43:33;96874.59;;;19.47;82.61
39769;BME280;38939;47.824;14.642;2022-08-01T05:44:35;96872.47;;;19.49;82.72
39769;BME280;38939;47.824;14.642;2022-08-01T05:45:37;96874.63;;;19.52;82.36
39769;BME280;38939;47.824;14.642;2022-08-01T05:46:39;96872.75;;;19.52;82.15
39769;BME280;38939;47.824;14.642;2022-08-01T05:47:41;96877.56;;;19.55;82.08
39769;BME280;38939;47.824;14.642;2022-08-01T05:48:43;96871.44;;;19.55;82.20